createdAt,value
2018-06-19T00:00:13.406Z,99.99
2018-06-19T00:01:13.437Z,99.99
2018-06-19T00:02:13.525Z,99.99
2018-06-19T00:03:13.573Z,99.99
2018-06-19T00:04:13.637Z,99.99
2018-06-19T00:05:13.697Z,99.99
2018-06-19T00:06:13.765Z,99.99
2018-06-19T00:07:13.833Z,99.99
2018-06-19T00:08:13.901Z,99.99
2018-06-19T00:09:13.962Z,99.99
2018-06-19T00:10:14.030Z,99.99
2018-06-19T00:11:14.090Z,99.99
2018-06-19T00:12:14.325Z,99.99
2018-06-19T00:13:14.222Z,99.99
2018-06-19T00:14:14.286Z,99.99
2018-06-19T00:15:14.350Z,99.99
2018-06-19T00:16:14.440Z,99.99
2018-06-19T00:17:14.526Z,99.99
2018-06-19T00:18:14.550Z,99.99
2018-06-19T00:19:14.614Z,99.99
2018-06-19T00:20:14.673Z,99.99
2018-06-19T00:21:14.742Z,99.99
2018-06-19T00:22:14.810Z,99.99
2018-06-19T00:23:14.878Z,99.99
2018-06-19T00:24:14.934Z,99.99
2018-06-19T00:25:15.002Z,99.99
2018-06-19T00:26:15.074Z,99.99
2018-06-19T00:27:15.527Z,99.99
2018-06-19T00:28:15.194Z,99.99
2018-06-19T00:29:15.258Z,99.99
2018-06-19T00:30:15.329Z,99.99
2018-06-19T00:31:15.390Z,99.99
2018-06-19T00:32:15.454Z,99.99
2018-06-19T00:33:15.634Z,99.99
2018-06-19T00:34:15.599Z,99.99
2018-06-19T00:35:15.650Z,99.99
2018-06-19T00:36:15.715Z,99.99
2018-06-19T00:37:15.778Z,99.99
2018-06-19T00:38:15.851Z,99.99
2018-06-19T00:39:15.949Z,99.99
2018-06-19T00:40:15.975Z,99.99
2018-06-19T00:41:16.039Z,99.99
2018-06-19T00:42:16.103Z,99.99
2018-06-19T00:43:16.167Z,99.99
2018-06-19T00:44:16.354Z,99.99
2018-06-19T00:45:16.299Z,99.99
2018-06-19T00:46:16.363Z,99.99
2018-06-19T00:47:16.427Z,99.99
2018-06-19T00:48:16.491Z,99.99
2018-06-19T00:49:16.563Z,99.99
2018-06-19T00:50:16.631Z,99.99
2018-06-19T00:51:16.687Z,99.99
2018-06-19T00:52:16.751Z,99.99
2018-06-19T00:53:16.859Z,99.99
2018-06-19T00:54:16.951Z,99.99
2018-06-19T00:55:16.951Z,99.99
2018-06-19T00:56:17.011Z,99.99
2018-06-19T00:57:17.075Z,99.99
2018-06-19T00:58:17.143Z,99.99
2018-06-19T00:59:17.227Z,99.99
2018-06-19T01:00:17.271Z,99.99
2018-06-19T01:01:17.336Z,99.99
2018-06-19T01:02:17.408Z,99.99
2018-06-19T01:03:17.463Z,99.99
2018-06-19T01:04:17.563Z,99.99
2018-06-19T01:05:17.599Z,99.99
2018-06-19T01:06:17.674Z,99.99
2018-06-19T01:07:17.723Z,99.99
2018-06-19T01:08:17.788Z,99.99
2018-06-19T01:09:17.860Z,99.99
2018-06-19T01:10:17.926Z,99.99
2018-06-19T01:11:17.984Z,99.99
2018-06-19T01:12:18.048Z,99.99
2018-06-19T01:13:18.112Z,99.99
2018-06-19T01:14:18.180Z,99.99
2018-06-19T01:15:18.260Z,99.99
2018-06-19T01:16:18.309Z,99.99
2018-06-19T01:17:18.372Z,99.99
2018-06-19T01:18:18.548Z,99.99
2018-06-19T01:19:18.569Z,99.99
2018-06-19T01:20:18.577Z,99.99
2018-06-19T01:21:18.653Z,99.99
2018-06-19T01:22:18.704Z,99.99
2018-06-19T01:23:20.605Z,99.99
2018-06-19T01:24:18.828Z,99.99
2018-06-19T01:25:18.920Z,99.99
2018-06-19T01:26:18.965Z,99.99
2018-06-19T01:27:19.049Z,99.99
2018-06-19T01:28:19.082Z,99.99
2018-06-19T01:29:19.193Z,99.99
2018-06-19T01:30:19.253Z,99.99
2018-06-19T01:31:19.281Z,99.99
2018-06-19T01:32:19.345Z,99.99
2018-06-19T01:33:19.445Z,99.99
2018-06-19T01:34:19.469Z,99.99
2018-06-19T01:35:19.554Z,99.99
2018-06-19T01:36:19.621Z,99.99
2018-06-19T01:37:19.788Z,99.99
2018-06-19T01:38:19.809Z,99.99
2018-06-19T01:39:19.889Z,99.99
2018-06-19T01:40:19.873Z,99.99
2018-06-19T01:41:19.938Z,99.99
2018-06-19T01:42:20.344Z,99.99
2018-06-19T01:43:20.063Z,99.99
2018-06-19T01:44:20.126Z,99.99
2018-06-19T01:45:20.214Z,99.99
2018-06-19T01:46:20.310Z,99.99
2018-06-19T01:47:20.814Z,99.99
2018-06-19T01:48:20.382Z,99.99
2018-06-19T01:49:20.446Z,99.99
2018-06-19T01:50:20.518Z,99.99
2018-06-19T01:51:21.622Z,99.99
2018-06-19T01:52:20.666Z,99.99
2018-06-19T01:53:20.706Z,99.99
2018-06-19T01:54:20.770Z,99.99
2018-06-19T01:55:20.830Z,99.99
2018-06-19T01:56:20.930Z,99.99
2018-06-19T01:57:20.969Z,99.99
2018-06-19T01:58:21.031Z,99.99
2018-06-19T01:59:21.086Z,99.99
2018-06-19T02:00:21.159Z,99.99
2018-06-19T02:01:21.382Z,99.99
2018-06-19T02:02:21.289Z,99.99
2018-06-19T02:03:21.342Z,99.99
2018-06-19T02:04:21.422Z,99.99
2018-06-19T02:05:21.478Z,99.99
2018-06-19T02:06:21.559Z,99.99
2018-06-19T02:07:21.692Z,99.99
2018-06-19T02:08:21.678Z,99.99
2018-06-19T02:09:21.734Z,99.99
2018-06-19T02:10:21.842Z,99.99
2018-06-19T02:11:22.008Z,99.99
2018-06-19T02:12:21.931Z,99.99
2018-06-19T02:13:22.090Z,99.99
2018-06-19T02:14:22.069Z,99.99
2018-06-19T02:15:22.127Z,99.99
2018-06-19T02:16:22.435Z,99.99
2018-06-19T02:17:22.256Z,99.99
2018-06-19T02:18:22.327Z,99.99
2018-06-19T02:19:22.383Z,99.99
2018-06-19T02:20:22.443Z,99.99
2018-06-19T02:21:22.523Z,99.99
2018-06-19T02:22:22.593Z,99.99
2018-06-19T02:23:22.639Z,99.99
2018-06-19T02:24:22.827Z,99.99
2018-06-19T02:25:23.483Z,99.99
2018-06-19T02:26:22.839Z,99.99
2018-06-19T02:27:22.916Z,99.99
2018-06-19T02:28:23.014Z,99.99
2018-06-19T02:29:23.031Z,99.99
2018-06-19T02:30:23.129Z,99.99
2018-06-19T02:31:23.196Z,99.99
2018-06-19T02:32:23.223Z,99.99
2018-06-19T02:33:23.288Z,99.99
2018-06-19T02:34:23.364Z,99.99
2018-06-19T02:35:23.492Z,99.99
2018-06-19T02:36:23.508Z,99.99
2018-06-19T02:37:23.783Z,99.99
2018-06-19T02:38:23.607Z,99.99
2018-06-19T02:39:23.688Z,99.99
2018-06-19T02:40:24.008Z,99.99
2018-06-19T02:41:23.828Z,99.99
2018-06-19T02:42:23.888Z,99.99
2018-06-19T02:43:25.624Z,99.99
2018-06-19T02:44:24.073Z,99.99
2018-06-19T02:45:24.120Z,99.99
2018-06-19T02:46:24.348Z,99.99
2018-06-19T02:47:24.220Z,99.99
2018-06-19T02:48:24.705Z,99.99
2018-06-19T02:49:24.588Z,99.99
2018-06-19T02:50:25.065Z,99.99
2018-06-19T02:51:24.456Z,99.99
2018-06-19T02:52:24.513Z,99.99
2018-06-19T02:53:24.577Z,99.99
2018-06-19T02:54:24.645Z,99.99
2018-06-19T02:55:24.708Z,99.99
2018-06-19T02:56:24.777Z,99.99
2018-06-19T02:57:24.869Z,99.99
2018-06-19T02:58:24.921Z,99.99
2018-06-19T02:59:24.972Z,99.99
2018-06-19T03:00:25.040Z,99.99
2018-06-19T03:01:25.093Z,99.99
2018-06-19T03:02:25.317Z,99.99
2018-06-19T03:03:25.221Z,99.99
2018-06-19T03:04:25.289Z,99.99
2018-06-19T03:05:25.365Z,99.99
2018-06-19T03:06:25.429Z,99.99
2018-06-19T03:07:25.644Z,99.99
2018-06-19T03:08:25.561Z,99.99
2018-06-19T03:09:25.609Z,99.99
2018-06-19T03:10:25.673Z,99.99
2018-06-19T03:11:25.781Z,99.99
2018-06-19T03:12:25.814Z,99.99
2018-06-19T03:13:25.917Z,99.99
2018-06-19T03:14:25.939Z,99.99
2018-06-19T03:15:26.004Z,99.99
2018-06-19T03:16:26.062Z,99.99
2018-06-19T03:17:26.126Z,99.99
2018-06-19T03:18:26.261Z,99.99
2018-06-19T03:19:26.268Z,99.99
2018-06-19T03:20:26.350Z,99.99
2018-06-19T03:21:26.417Z,99.99
2018-06-19T03:22:26.721Z,99.99
2018-06-19T03:23:26.518Z,99.99
2018-06-19T03:24:26.617Z,99.99
2018-06-19T03:25:26.641Z,99.99
2018-06-19T03:26:26.710Z,99.99
2018-06-19T03:27:26.765Z,99.99
2018-06-19T03:28:26.842Z,99.99
2018-06-19T03:29:26.954Z,99.99
2018-06-19T03:30:27.094Z,99.99
2018-06-19T03:31:27.055Z,99.99
2018-06-19T03:32:27.102Z,99.99
2018-06-19T03:33:27.460Z,99.99
2018-06-19T03:34:27.254Z,99.99
2018-06-19T03:35:27.290Z,99.99
2018-06-19T03:36:27.818Z,99.99
2018-06-19T03:37:27.454Z,99.99
2018-06-19T03:38:27.490Z,99.99
2018-06-19T03:39:27.674Z,99.99
2018-06-19T03:40:27.610Z,99.99
2018-06-19T03:41:27.678Z,99.99
2018-06-19T03:42:27.746Z,99.99
2018-06-19T03:43:27.810Z,99.99
2018-06-19T03:44:27.875Z,99.99
2018-06-19T03:45:27.938Z,99.99
2018-06-19T03:46:28.003Z,99.99
2018-06-19T03:47:28.122Z,99.99
2018-06-19T03:48:28.254Z,99.99
2018-06-19T03:49:28.190Z,99.99
2018-06-19T03:50:28.263Z,99.99
2018-06-19T03:51:28.322Z,99.99
2018-06-19T03:52:28.387Z,99.99
2018-06-19T03:53:28.463Z,99.99
2018-06-19T03:54:28.523Z,99.99
2018-06-19T03:55:28.580Z,99.99
2018-06-19T03:56:28.643Z,99.99
2018-06-19T03:57:28.707Z,99.99
2018-06-19T03:58:28.783Z,99.99
2018-06-19T03:59:28.843Z,99.99
2018-06-19T04:00:28.903Z,99.99
2018-06-19T04:01:28.970Z,99.99
2018-06-19T04:02:29.031Z,99.99
2018-06-19T04:03:29.107Z,99.99
2018-06-19T04:04:29.376Z,99.99
2018-06-19T04:05:29.223Z,99.99
2018-06-19T04:06:29.292Z,99.99
2018-06-19T04:07:29.355Z,99.99
2018-06-19T04:08:29.577Z,99.99
2018-06-19T04:09:29.495Z,99.99
2018-06-19T04:10:29.647Z,99.99
2018-06-19T04:11:29.619Z,99.99
2018-06-19T04:12:29.676Z,99.99
2018-06-19T04:13:29.740Z,99.99
2018-06-19T04:14:29.884Z,99.99
2018-06-19T04:15:29.926Z,99.99
2018-06-19T04:16:29.937Z,99.99
2018-06-19T04:17:30.000Z,99.99
2018-06-19T04:18:30.064Z,99.99
2018-06-19T04:19:30.228Z,99.99
2018-06-19T04:20:30.192Z,99.99
2018-06-19T04:21:30.260Z,99.99
2018-06-19T04:22:30.324Z,99.99
2018-06-19T04:23:30.388Z,99.99
2018-06-19T04:24:30.460Z,99.99
2018-06-19T04:25:30.524Z,99.99
2018-06-19T04:26:30.587Z,99.99
2018-06-19T04:27:30.644Z,99.99
2018-06-19T04:28:30.712Z,99.99
2018-06-19T04:29:30.784Z,99.99
2018-06-19T04:30:30.849Z,99.99
2018-06-19T04:31:30.904Z,99.99
2018-06-19T04:32:30.968Z,99.99
2018-06-19T04:33:31.039Z,99.99
2018-06-19T04:34:31.121Z,99.99
2018-06-19T04:35:31.165Z,99.99
2018-06-19T04:36:31.233Z,99.99
2018-06-19T04:37:31.352Z,99.99
2018-06-19T04:38:31.365Z,99.99
2018-06-19T04:39:31.429Z,99.99
2018-06-19T04:40:31.497Z,99.99
2018-06-19T04:41:31.553Z,99.99
2018-06-19T04:42:31.617Z,99.99
2018-06-19T04:43:31.685Z,99.99
2018-06-19T04:44:31.757Z,99.99
2018-06-19T04:45:32.157Z,99.99
2018-06-19T04:46:31.905Z,99.99
2018-06-19T04:47:32.029Z,99.99
2018-06-19T04:48:32.006Z,99.99
2018-06-19T04:49:32.142Z,99.99
2018-06-19T04:50:32.137Z,99.99
2018-06-19T04:51:32.202Z,99.99
2018-06-19T04:52:32.265Z,99.99
2018-06-19T04:53:32.343Z,99.99
2018-06-19T04:54:32.405Z,99.99
2018-06-19T04:55:32.537Z,99.99
2018-06-19T04:56:32.529Z,99.99
2018-06-19T04:57:32.589Z,99.99
2018-06-19T04:58:32.665Z,99.99
2018-06-19T04:59:32.974Z,99.99
2018-06-19T05:00:33.201Z,99.99
2018-06-19T05:01:32.849Z,99.99
2018-06-19T05:02:32.926Z,99.99
2018-06-19T05:03:32.985Z,99.99
2018-06-19T05:04:33.046Z,99.99
2018-06-19T05:05:33.126Z,99.99
2018-06-19T05:06:33.174Z,99.99
2018-06-19T05:07:33.242Z,99.99
2018-06-19T05:08:33.306Z,99.99
2018-06-19T05:09:33.410Z,99.99
2018-06-19T05:10:33.442Z,99.99
2018-06-19T05:11:33.531Z,99.99
2018-06-19T05:12:33.566Z,99.99
2018-06-19T05:13:33.630Z,99.99
2018-06-19T05:14:33.918Z,99.99
2018-06-19T05:15:33.767Z,99.99
2018-06-19T05:16:33.833Z,99.99
2018-06-19T05:17:33.894Z,99.99
2018-06-19T05:18:33.955Z,99.99
2018-06-19T05:19:34.027Z,99.99
2018-06-19T05:20:34.259Z,99.99
2018-06-19T05:21:34.194Z,99.99
2018-06-19T05:22:34.219Z,99.99
2018-06-19T05:23:34.279Z,99.99
2018-06-19T05:24:34.347Z,99.99
2018-06-19T05:25:34.455Z,99.99
2018-06-19T05:26:34.483Z,99.99
2018-06-19T05:27:34.707Z,99.99
2018-06-19T05:28:34.612Z,99.99
2018-06-19T05:29:34.672Z,99.99
2018-06-19T05:30:34.779Z,99.99
2018-06-19T05:31:34.807Z,99.99
2018-06-19T05:32:34.867Z,99.99
2018-06-19T05:33:34.931Z,99.99
2018-06-19T05:34:35.036Z,99.99
2018-06-19T05:35:35.064Z,99.99
2018-06-19T05:36:35.152Z,99.99
2018-06-19T05:37:35.192Z,99.99
2018-06-19T05:38:35.276Z,99.99
2018-06-19T05:39:35.324Z,99.99
2018-06-19T05:40:35.388Z,99.99
2018-06-19T05:41:35.459Z,99.99
2018-06-19T05:42:35.529Z,99.99
2018-06-19T05:43:35.583Z,99.99
2018-06-19T05:44:35.648Z,99.99
2018-06-19T05:45:35.716Z,99.99
2018-06-19T05:46:35.840Z,99.99
2018-06-19T05:47:35.852Z,99.99
2018-06-19T05:48:35.912Z,99.99
2018-06-19T05:49:35.976Z,99.99
2018-06-19T05:50:36.041Z,99.99
2018-06-19T05:51:36.132Z,99.99
2018-06-19T05:52:36.184Z,99.99
2018-06-19T05:53:36.240Z,99.99
2018-06-19T05:54:36.300Z,99.99
2018-06-19T05:55:36.396Z,99.99
2018-06-19T05:56:36.441Z,99.99
2018-06-19T05:57:36.504Z,99.99
2018-06-19T05:58:36.565Z,99.99
2018-06-19T05:59:36.632Z,99.99
2018-06-19T06:00:36.693Z,99.99
2018-06-19T06:01:36.764Z,99.99
2018-06-19T06:02:36.833Z,99.99
2018-06-19T06:03:36.889Z,99.99
2018-06-19T06:04:36.953Z,99.99
2018-06-19T06:05:37.032Z,99.99
2018-06-19T06:06:37.261Z,99.99
2018-06-19T06:07:37.149Z,99.99
2018-06-19T06:08:37.221Z,99.99
2018-06-19T06:09:37.285Z,99.99
2018-06-19T06:10:37.403Z,99.99
2018-06-19T06:11:37.417Z,99.99
2018-06-19T06:12:37.481Z,99.99
2018-06-19T06:13:37.542Z,99.99
2018-06-19T06:14:37.841Z,99.99
2018-06-19T06:15:37.746Z,99.99
2018-06-19T06:16:37.815Z,99.99
2018-06-19T06:17:37.813Z,99.99
2018-06-19T06:18:37.925Z,99.99
2018-06-19T06:19:37.975Z,99.99
2018-06-19T06:20:39.833Z,99.99
2018-06-19T06:21:38.173Z,99.99
2018-06-19T06:22:38.153Z,99.99
2018-06-19T06:23:38.195Z,99.99
2018-06-19T06:24:38.265Z,99.99
2018-06-19T06:25:38.338Z,99.99
2018-06-19T06:26:38.398Z,99.99
2018-06-19T06:27:38.934Z,99.99
2018-06-19T06:28:38.522Z,99.99
2018-06-19T06:29:38.590Z,99.99
2018-06-19T06:30:38.662Z,99.99
2018-06-19T06:31:38.727Z,99.99
2018-06-19T06:32:38.790Z,99.99
2018-06-19T06:33:38.854Z,99.99
2018-06-19T06:34:38.918Z,99.99
2018-06-19T06:35:38.982Z,99.99
2018-06-19T06:36:39.054Z,99.99
2018-06-19T06:37:39.118Z,99.99
2018-06-19T06:38:39.179Z,99.99
2018-06-19T06:39:39.247Z,99.99
2018-06-19T06:40:39.315Z,99.99
2018-06-19T06:41:39.466Z,99.99
2018-06-19T06:42:39.443Z,99.99
2018-06-19T06:43:39.507Z,99.99
2018-06-19T06:44:39.582Z,99.99
2018-06-19T06:45:39.639Z,99.99
2018-06-19T06:46:39.711Z,99.99
2018-06-19T06:47:39.803Z,99.99
2018-06-19T06:48:39.838Z,99.99
2018-06-19T06:49:39.903Z,99.99
2018-06-19T06:50:39.969Z,99.99
2018-06-19T06:51:40.048Z,99.99
2018-06-19T06:52:40.103Z,99.99
2018-06-19T06:53:40.175Z,99.99
2018-06-19T06:54:40.231Z,99.99
2018-06-19T06:55:40.300Z,99.99
2018-06-19T06:56:40.476Z,99.99
2018-06-19T06:57:40.428Z,99.99
2018-06-19T06:58:40.563Z,99.99
2018-06-19T06:59:40.559Z,99.99
2018-06-19T07:00:40.636Z,99.99
2018-06-19T07:01:40.696Z,99.99
2018-06-19T07:02:40.764Z,99.99
2018-06-19T07:03:40.820Z,99.99
2018-06-19T07:04:40.936Z,99.99
2018-06-19T07:05:40.952Z,99.99
2018-06-19T07:06:41.024Z,99.99
2018-06-19T07:07:41.125Z,99.99
2018-06-19T07:08:41.732Z,99.99
2018-06-19T07:09:41.436Z,99.99
2018-06-19T07:10:41.284Z,99.99
2018-06-19T07:11:41.368Z,99.99
2018-06-19T07:12:41.412Z,99.99
2018-06-19T07:13:41.480Z,99.99
2018-06-19T07:14:41.565Z,99.99
2018-06-19T07:15:41.658Z,99.99
2018-06-19T07:16:41.684Z,99.99
2018-06-19T07:17:41.749Z,99.99
2018-06-19T07:18:41.808Z,99.99
2018-06-19T07:19:41.873Z,99.99
2018-06-19T07:20:41.941Z,99.99
2018-06-19T07:21:42.033Z,99.99
2018-06-19T07:22:42.077Z,99.99
2018-06-19T07:23:42.604Z,99.99
2018-06-19T07:24:42.205Z,99.99
2018-06-19T07:25:42.288Z,99.99
2018-06-19T07:26:42.341Z,99.99
2018-06-19T07:27:42.404Z,99.99
2018-06-19T07:28:42.467Z,99.99
2018-06-19T07:29:42.572Z,99.99
2018-06-19T07:30:42.650Z,99.99
2018-06-19T07:31:42.693Z,99.99
2018-06-19T07:32:42.764Z,99.99
2018-06-19T07:33:42.816Z,99.99
2018-06-19T07:34:42.857Z,99.99
2018-06-19T07:35:42.941Z,99.99
2018-06-19T07:36:43.043Z,99.99
2018-06-19T07:37:43.070Z,99.99
2018-06-19T07:38:43.129Z,99.99
2018-06-19T07:39:43.189Z,99.99
2018-06-19T07:40:43.253Z,99.99
2018-06-19T07:41:43.413Z,99.99
2018-06-19T07:42:43.389Z,99.99
2018-06-19T07:43:43.466Z,99.99
2018-06-19T07:44:43.525Z,99.99
2018-06-19T07:45:43.585Z,99.99
2018-06-19T07:46:43.661Z,99.99
2018-06-19T07:47:43.743Z,99.99
2018-06-19T07:48:43.781Z,99.99
2018-06-19T07:49:43.858Z,99.99
2018-06-19T07:50:43.917Z,99.99
2018-06-19T07:51:44.066Z,99.99
2018-06-19T07:52:44.053Z,99.99
2018-06-19T07:53:44.109Z,99.99
2018-06-19T07:54:44.178Z,99.99
2018-06-19T07:55:44.242Z,99.99
2018-06-19T07:56:44.453Z,99.99
2018-06-19T07:57:44.369Z,99.99
2018-06-19T07:58:44.445Z,99.99
2018-06-19T07:59:44.510Z,99.99
2018-06-19T08:00:44.566Z,99.99
2018-06-19T08:01:44.642Z,99.99
2018-06-19T08:02:44.790Z,99.99
2018-06-19T08:03:44.833Z,99.99
2018-06-19T08:04:44.838Z,99.99
2018-06-19T08:05:44.978Z,99.99
2018-06-19T08:06:44.983Z,99.99
2018-06-19T08:07:45.051Z,99.99
2018-06-19T08:08:45.174Z,99.99
2018-06-19T08:09:45.174Z,99.99
2018-06-19T08:10:45.233Z,99.99
2018-06-19T08:11:45.303Z,99.99
2018-06-19T08:12:45.471Z,99.99
2018-06-19T08:13:45.437Z,99.99
2018-06-19T08:14:45.499Z,99.99
2018-06-19T08:15:45.567Z,99.99
2018-06-19T08:16:45.659Z,99.99
2018-06-19T08:17:45.727Z,99.99
2018-06-19T08:18:45.820Z,99.99
2018-06-19T08:19:45.823Z,99.99
2018-06-19T08:20:45.907Z,99.99
2018-06-19T08:21:45.959Z,99.99
2018-06-19T08:22:46.130Z,99.99
2018-06-19T08:23:46.119Z,99.99
2018-06-19T08:24:46.163Z,99.99
2018-06-19T08:25:46.224Z,99.99
2018-06-19T08:26:46.424Z,99.99
2018-06-19T08:27:46.380Z,99.99
2018-06-19T08:28:46.420Z,99.99
2018-06-19T08:29:46.487Z,99.99
2018-06-19T08:30:46.979Z,99.99
2018-06-19T08:31:46.740Z,99.99
2018-06-19T08:32:46.736Z,99.99
2018-06-19T08:33:46.771Z,99.99
2018-06-19T08:34:46.819Z,99.99
2018-06-19T08:35:46.903Z,99.99
2018-06-19T08:36:46.992Z,99.99
2018-06-19T08:37:47.036Z,99.99
2018-06-19T08:38:47.089Z,99.99
2018-06-19T08:39:47.148Z,99.99
2018-06-19T08:40:47.216Z,99.99
2018-06-19T08:41:47.288Z,99.99
2018-06-19T08:42:47.360Z,99.99
2018-06-19T08:43:47.404Z,99.99
2018-06-19T08:44:47.628Z,99.99
2018-06-19T08:45:47.568Z,99.99
2018-06-19T08:46:47.623Z,99.99
2018-06-19T08:47:47.916Z,99.99
2018-06-19T08:48:47.776Z,99.99
2018-06-19T08:49:47.804Z,99.99
2018-06-19T08:50:47.876Z,99.99
2018-06-19T08:51:47.944Z,99.99
2018-06-19T08:52:48.013Z,99.99
2018-06-19T08:53:48.084Z,99.99
2018-06-19T08:54:48.353Z,99.99
2018-06-19T08:55:48.205Z,99.99
2018-06-19T08:56:48.268Z,99.99
2018-06-19T08:57:48.397Z,99.99
2018-06-19T08:58:48.416Z,99.99
2018-06-19T08:59:48.464Z,99.99
2018-06-19T09:00:48.532Z,99.99
2018-06-19T09:01:48.601Z,99.99
2018-06-19T09:02:48.673Z,99.99
2018-06-19T09:03:48.825Z,99.99
2018-06-19T09:04:48.800Z,99.99
2018-06-19T09:05:48.873Z,99.99
2018-06-19T09:06:48.933Z,99.99
2018-06-19T09:07:49.015Z,99.99
2018-06-19T09:08:49.069Z,99.99
2018-06-19T09:09:49.129Z,99.99
2018-06-19T09:10:49.197Z,99.99
2018-06-19T09:11:49.265Z,99.99
2018-06-19T09:12:49.374Z,99.99
2018-06-19T09:13:49.414Z,99.99
2018-06-19T09:14:49.461Z,99.99
2018-06-19T09:15:49.526Z,99.99
2018-06-19T09:16:49.597Z,99.99
2018-06-19T09:17:49.658Z,99.99
2018-06-19T09:18:49.734Z,99.99
2018-06-19T09:19:49.797Z,99.99
2018-06-19T09:20:49.862Z,99.99
2018-06-19T09:21:49.958Z,99.99
2018-06-19T09:22:49.995Z,99.99
2018-06-19T09:23:50.070Z,99.99
2018-06-19T09:24:50.138Z,99.99
2018-06-19T09:25:50.223Z,99.99
2018-06-19T09:26:50.295Z,99.99
2018-06-19T09:27:50.326Z,99.99
2018-06-19T09:28:50.412Z,99.99
2018-06-19T09:29:50.474Z,99.99
2018-06-19T09:30:50.530Z,99.99
2018-06-19T09:31:50.602Z,99.99
2018-06-19T09:32:50.687Z,99.99
2018-06-19T09:33:50.730Z,99.99
2018-06-19T09:34:50.798Z,99.99
2018-06-19T09:35:50.859Z,99.99
2018-06-19T09:36:50.926Z,99.99
2018-06-19T09:37:50.995Z,99.99
2018-06-19T09:38:51.067Z,99.99
2018-06-19T09:39:51.232Z,99.99
2018-06-19T09:40:51.198Z,99.99
2018-06-19T09:41:51.259Z,99.99
2018-06-19T09:42:51.328Z,99.99
2018-06-19T09:43:51.399Z,99.99
2018-06-19T09:44:51.467Z,99.99
2018-06-19T09:45:51.532Z,99.99
2018-06-19T09:46:51.594Z,99.99
2018-06-19T09:47:51.658Z,99.99
2018-06-19T09:48:51.735Z,99.99
2018-06-19T09:49:51.799Z,99.99
2018-06-19T09:50:51.859Z,99.99
2018-06-19T09:51:52.038Z,99.99
2018-06-19T09:52:52.015Z,99.99
2018-06-19T09:53:52.106Z,99.99
2018-06-19T09:54:52.135Z,99.99
2018-06-19T09:55:52.200Z,99.99
2018-06-19T09:56:52.273Z,99.99
2018-06-19T09:57:52.371Z,99.99
2018-06-19T09:58:52.402Z,99.99
2018-06-19T09:59:52.515Z,99.99
2018-06-19T10:00:52.527Z,99.99
2018-06-19T10:01:52.595Z,99.99
2018-06-19T10:02:52.663Z,99.99
2018-06-19T10:03:52.735Z,99.99
2018-06-19T10:04:52.811Z,99.99
2018-06-19T10:05:52.864Z,99.99
2018-06-19T10:06:52.933Z,99.99
2018-06-19T10:07:53.016Z,99.99
2018-06-19T10:08:53.075Z,99.99
2018-06-19T10:09:53.204Z,99.99
2018-06-19T10:10:53.199Z,99.99
2018-06-19T10:11:53.295Z,99.99
2018-06-19T10:12:53.336Z,99.99
2018-06-19T10:13:53.404Z,99.99
2018-06-19T10:14:53.472Z,99.99
2018-06-19T10:15:53.552Z,99.99
2018-06-19T10:16:53.616Z,99.99
2018-06-19T10:17:53.668Z,99.99
2018-06-19T10:18:53.741Z,99.99
2018-06-19T10:19:53.836Z,99.99
2018-06-19T10:20:53.868Z,99.99
2018-06-19T10:21:53.976Z,99.99
2018-06-19T10:22:54.002Z,99.99
2018-06-19T10:23:54.496Z,99.99
2018-06-19T10:24:54.136Z,99.99
2018-06-19T10:25:54.204Z,99.99
2018-06-19T10:26:54.273Z,99.99
2018-06-19T10:27:54.337Z,99.99
2018-06-19T10:28:54.404Z,99.99
2018-06-19T10:29:54.832Z,99.99
2018-06-19T10:30:54.541Z,99.99
2018-06-19T10:31:54.609Z,99.26
2018-06-19T10:32:54.677Z,99.99
2018-06-19T10:33:54.746Z,98.54
2018-06-19T10:34:54.959Z,99.11
2018-06-19T10:35:54.886Z,96.31
2018-06-19T10:36:54.949Z,97.72
2018-06-19T10:37:55.017Z,95.54
2018-06-19T10:38:55.085Z,96.36
2018-06-19T10:39:55.173Z,98.25
2018-06-19T10:40:55.221Z,99.99
2018-06-19T10:41:55.289Z,99.99
2018-06-19T10:42:55.357Z,99.99
2018-06-19T10:43:55.425Z,99.40
2018-06-19T10:44:55.834Z,99.99
2018-06-19T10:45:55.612Z,99.99
2018-06-19T10:46:55.630Z,99.99
2018-06-19T10:47:55.701Z,99.99
2018-06-19T10:48:55.771Z,99.99
2018-06-19T10:49:55.849Z,99.99
2018-06-19T10:50:55.933Z,99.99
2018-06-19T10:51:55.969Z,99.99
2018-06-19T10:52:56.038Z,99.99
2018-06-19T10:53:56.470Z,99.99
2018-06-19T10:54:56.290Z,99.99
2018-06-19T10:55:56.258Z,99.99
2018-06-19T10:56:56.310Z,99.99
2018-06-19T10:57:56.378Z,99.99
2018-06-19T10:58:56.466Z,99.99
2018-06-19T10:59:56.522Z,99.99
2018-06-19T11:00:56.634Z,99.99
2018-06-19T11:01:56.654Z,99.99
2018-06-19T11:02:56.758Z,99.99
2018-06-19T11:03:56.786Z,99.99
2018-06-19T11:04:56.892Z,99.99
2018-06-19T11:05:56.930Z,99.99
2018-06-19T11:06:56.990Z,99.99
2018-06-19T11:07:57.059Z,99.99
2018-06-19T11:08:57.195Z,99.99
2018-06-19T11:09:57.210Z,99.99
2018-06-19T11:10:57.275Z,99.99
2018-06-19T11:11:57.363Z,99.99
2018-06-19T11:12:57.399Z,99.99
2018-06-19T11:13:57.470Z,99.99
2018-06-19T11:14:57.542Z,99.79
2018-06-19T11:15:57.611Z,98.88
2018-06-19T11:16:57.675Z,99.45
2018-06-19T11:17:57.763Z,99.99
2018-06-19T11:18:57.811Z,99.99
2018-06-19T11:19:57.936Z,99.99
2018-06-19T11:20:57.979Z,99.99
2018-06-19T11:21:58.015Z,99.07
2018-06-19T11:22:58.087Z,99.99
2018-06-19T11:23:58.192Z,96.26
2018-06-19T11:24:58.331Z,98.20
2018-06-19T11:25:58.333Z,98.83
2018-06-19T11:26:58.359Z,99.02
2018-06-19T11:27:58.453Z,96.60
2018-06-19T11:28:58.560Z,96.22
2018-06-19T11:29:58.631Z,97.09
2018-06-19T11:30:58.646Z,94.86
2018-06-19T11:31:58.703Z,97.72
2018-06-19T11:32:58.801Z,96.61
2018-06-19T11:33:58.843Z,97.28
2018-06-19T11:34:58.919Z,97.09
2018-06-19T11:35:58.987Z,98.05
2018-06-19T11:36:59.048Z,96.99
2018-06-19T11:37:59.128Z,97.09
2018-06-19T11:38:59.187Z,98.97
2018-06-19T11:39:59.352Z,99.26
2018-06-19T11:40:59.323Z,99.94
2018-06-19T11:41:59.391Z,98.10
2018-06-19T11:42:59.463Z,99.99
2018-06-19T11:43:59.534Z,97.52
2018-06-19T11:44:59.604Z,97.67
2018-06-19T11:45:59.676Z,95.54
2018-06-19T11:46:59.737Z,94.96
2018-06-19T11:47:59.880Z,95.64
2018-06-19T11:48:59.874Z,94.09
2018-06-19T11:49:59.974Z,93.66
2018-06-19T11:51:00.020Z,94.43
2018-06-19T11:52:00.084Z,94.04
2018-06-19T11:53:00.148Z,94.96
2018-06-19T11:54:00.216Z,90.90
2018-06-19T11:55:00.296Z,90.12
2018-06-19T11:56:00.599Z,92.88
2018-06-19T11:57:00.660Z,89.39
2018-06-19T11:58:00.492Z,89.49
2018-06-19T11:59:02.333Z,90.75
2018-06-19T12:00:00.633Z,89.78
2018-06-19T12:01:00.709Z,90.12
2018-06-19T12:02:00.793Z,89.34
2018-06-19T12:03:00.842Z,87.65
2018-06-19T12:04:00.909Z,86.69
2018-06-19T12:05:00.976Z,87.55
2018-06-19T12:06:01.501Z,86.59
2018-06-19T12:07:01.121Z,88.33
2018-06-19T12:08:01.185Z,89.74
2018-06-19T12:09:01.253Z,89.64
2018-06-19T12:10:01.357Z,92.30
2018-06-19T12:11:01.407Z,91.00
2018-06-19T12:12:01.465Z,93.13
2018-06-19T12:13:01.557Z,94.67
2018-06-19T12:14:01.598Z,93.76
2018-06-19T12:15:01.670Z,95.98
2018-06-19T12:16:02.381Z,95.30
2018-06-19T12:17:02.878Z,95.78
2018-06-19T12:18:02.210Z,96.36
2018-06-19T12:19:02.394Z,97.38
2018-06-19T12:20:02.170Z,98.83
2018-06-19T12:21:02.182Z,98.05
2018-06-19T12:22:02.149Z,97.96
2018-06-19T12:23:02.218Z,97.96
2018-06-19T12:24:02.322Z,99.16
2018-06-19T12:25:02.354Z,99.99
2018-06-19T12:26:03.054Z,97.52
2018-06-19T12:27:02.498Z,97.04
2018-06-19T12:28:02.561Z,96.51
2018-06-19T12:29:02.696Z,96.31
2018-06-19T12:30:02.698Z,97.47
2018-06-19T12:31:02.790Z,97.77
2018-06-19T12:32:02.862Z,95.88
2018-06-19T12:33:02.903Z,94.62
2018-06-19T12:34:02.970Z,95.64
2018-06-19T12:35:03.038Z,97.19
2018-06-19T12:36:03.134Z,97.57
2018-06-19T12:37:03.214Z,97.57
2018-06-19T12:38:03.287Z,96.51
2018-06-19T12:39:03.314Z,97.52
2018-06-19T12:40:03.386Z,98.20
2018-06-19T12:41:03.458Z,98.00
2018-06-19T12:42:03.523Z,98.29
2018-06-19T12:43:03.648Z,99.99
2018-06-19T12:44:03.658Z,99.99
2018-06-19T12:45:03.745Z,99.99
2018-06-19T12:46:03.816Z,99.99
2018-06-19T12:47:03.871Z,99.99
2018-06-19T12:48:03.927Z,99.99
2018-06-19T12:49:03.995Z,99.99
2018-06-19T12:50:04.067Z,99.99
2018-06-19T12:51:04.472Z,99.99
2018-06-19T12:52:04.427Z,99.99
2018-06-19T12:53:04.271Z,99.99